sensor_id;sensor_type;location;lat;lon;timestamp;P1;durP1;ratioP1;P2;durP2;ratioP2
25435;SDS011;13363;52.772;-3.890;2024-02-26T00:01:54;2.60;;;2.40;;
25435;SDS011;13363;52.772;-3.890;2024-02-26T00:04:20;4.27;;;2.23;;
25435;SDS011;13363;52.772;-3.890;2024-02-26T00:06:47;5.37;;;2.60;;
25435;SDS011;13363;52.772;-3.890;2024-02-26T00:09:15;2.63;;;2.43;;
25435;SDS011;13363;52.772;-3.890;2024-02-26T00:11:41;3.13;;;2.30;;
25435;SDS011;13363;52.772;-3.890;2024-02-26T00:14:07;2.30;;;2.10;;
25435;SDS011;13363;52.772;-3.890;2024-02-26T00:16:34;2.73;;;2.53;;
25435;SDS011;13363;52.772;-3.890;2024-02-26T00:19:00;4.03;;;2.47;;
25435;SDS011;13363;52.772;-3.890;2024-02-26T00:21:26;4.63;;;2.27;;
25435;SDS011;13363;52.772;-3.890;2024-02-26T00:23:52;2.97;;;1.93;;
25435;SDS011;13363;52.772;-3.890;2024-02-26T00:26:19;4.27;;;2.60;;
25435;SDS011;13363;52.772;-3.890;2024-02-26T00:28:45;2.07;;;1.97;;
25435;SDS011;13363;52.772;-3.890;2024-02-26T00:31:11;2.77;;;2.57;;
25435;SDS011;13363;52.772;-3.890;2024-02-26T00:33:37;2.67;;;2.30;;
25435;SDS011;13363;52.772;-3.890;2024-02-26T00:36:03;2.20;;;2.00;;
25435;SDS011;13363;52.772;-3.890;2024-02-26T00:38:30;2.47;;;2.27;;
25435;SDS011;13363;52.772;-3.890;2024-02-26T00:40:56;6.17;;;2.33;;
25435;SDS011;13363;52.772;-3.890;2024-02-26T00:43:22;2.40;;;2.20;;
25435;SDS011;13363;52.772;-3.890;2024-02-26T00:45:48;2.60;;;2.40;;
25435;SDS011;13363;52.772;-3.890;2024-02-26T00:48:14;2.40;;;2.30;;
25435;SDS011;13363;52.772;-3.890;2024-02-26T00:50:41;4.73;;;2.23;;
25435;SDS011;13363;52.772;-3.890;2024-02-26T00:53:08;2.40;;;2.30;;
25435;SDS011;13363;52.772;-3.890;2024-02-26T00:55:34;4.13;;;2.60;;
25435;SDS011;13363;52.772;-3.890;2024-02-26T00:58:00;2.70;;;2.50;;
25435;SDS011;13363;52.772;-3.890;2024-02-26T01:00:26;5.57;;;2.90;;
25435;SDS011;13363;52.772;-3.890;2024-02-26T01:02:52;3.63;;;2.57;;
25435;SDS011;13363;52.772;-3.890;2024-02-26T01:05:18;2.87;;;2.63;;
25435;SDS011;13363;52.772;-3.890;2024-02-26T01:07:45;2.73;;;2.53;;
25435;SDS011;13363;52.772;-3.890;2024-02-26T01:10:11;2.97;;;2.40;;
25435;SDS011;13363;52.772;-3.890;2024-02-26T01:12:37;5.87;;;2.83;;
25435;SDS011;13363;52.772;-3.890;2024-02-26T01:15:03;4.27;;;2.47;;
25435;SDS011;13363;52.772;-3.890;2024-02-26T01:17:30;3.87;;;2.27;;
25435;SDS011;13363;52.772;-3.890;2024-02-26T01:19:56;3.20;;;2.90;;
25435;SDS011;13363;52.772;-3.890;2024-02-26T01:22:22;5.23;;;2.30;;
25435;SDS011;13363;52.772;-3.890;2024-02-26T01:24:48;3.30;;;2.60;;
25435;SDS011;13363;52.772;-3.890;2024-02-26T01:27:14;2.50;;;2.30;;
25435;SDS011;13363;52.772;-3.890;2024-02-26T01:29:41;2.77;;;2.40;;
25435;SDS011;13363;52.772;-3.890;2024-02-26T01:32:07;4.00;;;2.77;;
25435;SDS011;13363;52.772;-3.890;2024-02-26T01:34:33;3.27;;;2.93;;
25435;SDS011;13363;52.772;-3.890;2024-02-26T01:37:02;3.27;;;2.73;;
25435;SDS011;13363;52.772;-3.890;2024-02-26T01:39:28;4.20;;;2.37;;
25435;SDS011;13363;52.772;-3.890;2024-02-26T01:41:55;2.53;;;2.33;;
25435;SDS011;13363;52.772;-3.890;2024-02-26T01:44:21;2.53;;;2.33;;
25435;SDS011;13363;52.772;-3.890;2024-02-26T01:46:47;2.80;;;2.40;;
25435;SDS011;13363;52.772;-3.890;2024-02-26T01:49:14;2.40;;;2.30;;
25435;SDS011;13363;52.772;-3.890;2024-02-26T01:51:40;3.63;;;2.20;;
25435;SDS011;13363;52.772;-3.890;2024-02-26T01:54:08;2.00;;;1.90;;
25435;SDS011;13363;52.772;-3.890;2024-02-26T01:56:35;2.50;;;2.30;;
25435;SDS011;13363;52.772;-3.890;2024-02-26T01:59:02;2.27;;;1.93;;
25435;SDS011;13363;52.772;-3.890;2024-02-26T02:01:29;4.77;;;2.00;;
25435;SDS011;13363;52.772;-3.890;2024-02-26T02:03:58;2.47;;;1.70;;
25435;SDS011;13363;52.772;-3.890;2024-02-26T02:06:25;3.10;;;2.00;;
25435;SDS011;13363;52.772;-3.890;2024-02-26T02:08:54;3.03;;;2.10;;
25435;SDS011;13363;52.772;-3.890;2024-02-26T02:11:20;2.50;;;2.20;;
25435;SDS011;13363;52.772;-3.890;2024-02-26T02:13:46;2.97;;;2.13;;
25435;SDS011;13363;52.772;-3.890;2024-02-26T02:16:13;2.30;;;2.10;;
25435;SDS011;13363;52.772;-3.890;2024-02-26T02:18:39;1.93;;;1.83;;
25435;SDS011;13363;52.772;-3.890;2024-02-26T02:21:05;3.10;;;1.93;;
25435;SDS011;13363;52.772;-3.890;2024-02-26T02:23:31;2.50;;;1.60;;
25435;SDS011;13363;52.772;-3.890;2024-02-26T02:25:57;3.00;;;1.83;;
25435;SDS011;13363;52.772;-3.890;2024-02-26T02:28:25;2.03;;;1.80;;
25435;SDS011;13363;52.772;-3.890;2024-02-26T02:30:51;2.30;;;2.10;;
25435;SDS011;13363;52.772;-3.890;2024-02-26T02:33:18;2.13;;;1.93;;
25435;SDS011;13363;52.772;-3.890;2024-02-26T02:35:44;3.20;;;2.00;;
25435;SDS011;13363;52.772;-3.890;2024-02-26T02:38:11;2.10;;;1.87;;
25435;SDS011;13363;52.772;-3.890;2024-02-26T02:40:37;2.37;;;2.17;;
25435;SDS011;13363;52.772;-3.890;2024-02-26T02:43:03;3.67;;;2.10;;
25435;SDS011;13363;52.772;-3.890;2024-02-26T02:45:29;2.10;;;1.90;;
25435;SDS011;13363;52.772;-3.890;2024-02-26T02:47:56;3.67;;;2.10;;
25435;SDS011;13363;52.772;-3.890;2024-02-26T02:50:22;1.83;;;1.73;;
25435;SDS011;13363;52.772;-3.890;2024-02-26T02:52:48;2.77;;;1.87;;
25435;SDS011;13363;52.772;-3.890;2024-02-26T02:55:15;2.67;;;2.03;;
25435;SDS011;13363;52.772;-3.890;2024-02-26T02:57:41;7.07;;;2.17;;
25435;SDS011;13363;52.772;-3.890;2024-02-26T03:00:09;2.13;;;1.90;;
25435;SDS011;13363;52.772;-3.890;2024-02-26T03:02:36;3.07;;;1.93;;
25435;SDS011;13363;52.772;-3.890;2024-02-26T03:05:03;3.67;;;1.97;;
25435;SDS011;13363;52.772;-3.890;2024-02-26T03:07:29;2.90;;;1.60;;
25435;SDS011;13363;52.772;-3.890;2024-02-26T03:09:55;4.90;;;2.10;;
25435;SDS011;13363;52.772;-3.890;2024-02-26T03:12:21;1.90;;;1.80;;
25435;SDS011;13363;52.772;-3.890;2024-02-26T03:14:47;2.10;;;1.70;;
25435;SDS011;13363;52.772;-3.890;2024-02-26T03:17:14;1.83;;;1.73;;
25435;SDS011;13363;52.772;-3.890;2024-02-26T03:19:40;2.70;;;1.50;;
25435;SDS011;13363;52.772;-3.890;2024-02-26T03:22:06;1.60;;;1.47;;
25435;SDS011;13363;52.772;-3.890;2024-02-26T03:24:33;2.90;;;2.10;;
25435;SDS011;13363;52.772;-3.890;2024-02-26T03:26:59;2.30;;;1.97;;
25435;SDS011;13363;52.772;-3.890;2024-02-26T03:29:25;3.90;;;1.87;;
25435;SDS011;13363;52.772;-3.890;2024-02-26T03:31:51;2.60;;;2.00;;
25435;SDS011;13363;52.772;-3.890;2024-02-26T03:34:17;1.93;;;1.63;;
25435;SDS011;13363;52.772;-3.890;2024-02-26T03:36:44;4.10;;;2.77;;
25435;SDS011;13363;52.772;-3.890;2024-02-26T03:39:11;2.33;;;1.80;;
25435;SDS011;13363;52.772;-3.890;2024-02-26T03:41:37;3.07;;;1.70;;
25435;SDS011;13363;52.772;-3.890;2024-02-26T03:44:03;4.03;;;1.60;;
25435;SDS011;13363;52.772;-3.890;2024-02-26T03:46:29;3.50;;;1.70;;
25435;SDS011;13363;52.772;-3.890;2024-02-26T03:48:56;2.57;;;1.40;;
25435;SDS011;13363;52.772;-3.890;2024-02-26T03:51:22;3.33;;;1.77;;
25435;SDS011;13363;52.772;-3.890;2024-02-26T03:53:48;2.20;;;1.50;;
25435;SDS011;13363;52.772;-3.890;2024-02-26T03:56:14;2.63;;;1.93;;
25435;SDS011;13363;52.772;-3.890;2024-02-26T03:58:40;1.70;;;1.60;;
25435;SDS011;13363;52.772;-3.890;2024-02-26T04:01:07;3.97;;;1.50;;
25435;SDS011;13363;52.772;-3.890;2024-02-26T04:03:34;1.77;;;1.50;;
25435;SDS011;13363;52.772;-3.890;2024-02-26T04:06:00;3.03;;;1.73;;
25435;SDS011;13363;52.772;-3.890;2024-02-26T04:08:26;2.33;;;2.00;;
25435;SDS011;13363;52.772;-3.890;2024-02-26T04:10:52;1.63;;;1.47;;
25435;SDS011;13363;52.772;-3.890;2024-02-26T04:13:19;3.27;;;1.80;;
25435;SDS011;13363;52.772;-3.890;2024-02-26T04:15:45;2.17;;;1.60;;
25435;SDS011;13363;52.772;-3.890;2024-02-26T04:18:12;1.47;;;1.43;;
25435;SDS011;13363;52.772;-3.890;2024-02-26T04:20:39;2.63;;;1.90;;
25435;SDS011;13363;52.772;-3.890;2024-02-26T04:23:07;2.43;;;2.00;;
25435;SDS011;13363;52.772;-3.890;2024-02-26T04:25:33;2.60;;;2.23;;
25435;SDS011;13363;52.772;-3.890;2024-02-26T04:27:59;3.70;;;1.93;;
25435;SDS011;13363;52.772;-3.890;2024-02-26T04:30:26;2.30;;;2.10;;
25435;SDS011;13363;52.772;-3.890;2024-02-26T04:32:52;2.53;;;2.00;;
25435;SDS011;13363;52.772;-3.890;2024-02-26T04:35:18;2.33;;;2.10;;
25435;SDS011;13363;52.772;-3.890;2024-02-26T04:37:44;3.43;;;2.33;;
25435;SDS011;13363;52.772;-3.890;2024-02-26T04:40:10;4.67;;;2.17;;
25435;SDS011;13363;52.772;-3.890;2024-02-26T04:42:37;2.80;;;2.10;;
25435;SDS011;13363;52.772;-3.890;2024-02-26T04:45:03;4.20;;;2.50;;
25435;SDS011;13363;52.772;-3.890;2024-02-26T04:47:29;3.23;;;2.17;;
25435;SDS011;13363;52.772;-3.890;2024-02-26T04:49:55;2.10;;;1.90;;
25435;SDS011;13363;52.772;-3.890;2024-02-26T04:52:21;2.00;;;1.90;;
25435;SDS011;13363;52.772;-3.890;2024-02-26T04:54:48;2.57;;;2.37;;
25435;SDS011;13363;52.772;-3.890;2024-02-26T04:57:14;2.30;;;2.10;;
25435;SDS011;13363;52.772;-3.890;2024-02-26T04:59:40;4.43;;;2.27;;
25435;SDS011;13363;52.772;-3.890;2024-02-26T05:02:07;2.60;;;1.90;;
25435;SDS011;13363;52.772;-3.890;2024-02-26T05:04:33;6.87;;;2.60;;
25435;SDS011;13363;52.772;-3.890;2024-02-26T05:06:59;2.70;;;2.20;;
25435;SDS011;13363;52.772;-3.890;2024-02-26T05:09:25;2.57;;;2.10;;
25435;SDS011;13363;52.772;-3.890;2024-02-26T05:11:52;4.47;;;2.20;;
25435;SDS011;13363;52.772;-3.890;2024-02-26T05:14:18;2.53;;;2.33;;
25435;SDS011;13363;52.772;-3.890;2024-02-26T05:16:44;3.53;;;2.00;;
25435;SDS011;13363;52.772;-3.890;2024-02-26T05:19:10;1.93;;;1.80;;
25435;SDS011;13363;52.772;-3.890;2024-02-26T05:21:37;6.20;;;3.20;;
25435;SDS011;13363;52.772;-3.890;2024-02-26T05:24:03;2.30;;;2.10;;
25435;SDS011;13363;52.772;-3.890;2024-02-26T05:26:29;4.77;;;2.00;;
25435;SDS011;13363;52.772;-3.890;2024-02-26T05:28:55;3.07;;;2.03;;
25435;SDS011;13363;52.772;-3.890;2024-02-26T05:31:24;3.63;;;2.80;;
25435;SDS011;13363;52.772;-3.890;2024-02-26T05:33:51;3.53;;;2.47;;
25435;SDS011;13363;52.772;-3.890;2024-02-26T05:36:20;3.73;;;2.47;;
25435;SDS011;13363;52.772;-3.890;2024-02-26T05:38:48;3.87;;;2.50;;
25435;SDS011;13363;52.772;-3.890;2024-02-26T05:41:17;3.97;;;2.50;;
25435;SDS011;13363;52.772;-3.890;2024-02-26T05:43:48;4.20;;;2.90;;
25435;SDS011;13363;52.772;-3.890;2024-02-26T05:46:18;5.47;;;2.60;;
25435;SDS011;13363;52.772;-3.890;2024-02-26T05:48:48;3.20;;;2.67;;
25435;SDS011;13363;52.772;-3.890;2024-02-26T05:51:15;5.00;;;2.77;;
25435;SDS011;13363;52.772;-3.890;2024-02-26T05:53:41;4.87;;;3.27;;
25435;SDS011;13363;52.772;-3.890;2024-02-26T05:56:07;5.07;;;3.23;;
25435;SDS011;13363;52.772;-3.890;2024-02-26T05:58:33;2.83;;;2.63;;
25435;SDS011;13363;52.772;-3.890;2024-02-26T06:00:59;3.87;;;2.77;;
25435;SDS011;13363;52.772;-3.890;2024-02-26T06:03:26;3.60;;;2.97;;
25435;SDS011;13363;52.772;-3.890;2024-02-26T06:05:52;4.40;;;2.90;;
25435;SDS011;13363;52.772;-3.890;2024-02-26T06:08:18;3.17;;;2.97;;
25435;SDS011;13363;52.772;-3.890;2024-02-26T06:10:44;3.30;;;3.00;;
25435;SDS011;13363;52.772;-3.890;2024-02-26T06:13:10;4.67;;;2.80;;
25435;SDS011;13363;52.772;-3.890;2024-02-26T06:15:37;3.47;;;3.17;;
25435;SDS011;13363;52.772;-3.890;2024-02-26T06:18:03;3.13;;;2.83;;
25435;SDS011;13363;52.772;-3.890;2024-02-26T06:20:35;3.23;;;2.90;;
25435;SDS011;13363;52.772;-3.890;2024-02-26T06:23:01;6.40;;;3.13;;
25435;SDS011;13363;52.772;-3.890;2024-02-26T06:25:27;3.70;;;3.40;;
25435;SDS011;13363;52.772;-3.890;2024-02-26T06:27:54;4.13;;;3.10;;
25435;SDS011;13363;52.772;-3.890;2024-02-26T06:30:20;4.27;;;3.87;;
25435;SDS011;13363;52.772;-3.890;2024-02-26T06:32:46;3.90;;;3.40;;
25435;SDS011;13363;52.772;-3.890;2024-02-26T06:35:12;5.30;;;3.00;;
25435;SDS011;13363;52.772;-3.890;2024-02-26T06:37:38;3.13;;;2.93;;
25435;SDS011;13363;52.772;-3.890;2024-02-26T06:40:05;3.83;;;3.07;;
25435;SDS011;13363;52.772;-3.890;2024-02-26T06:42:32;3.30;;;3.00;;
25435;SDS011;13363;52.772;-3.890;2024-02-26T06:44:58;3.27;;;3.07;;
25435;SDS011;13363;52.772;-3.890;2024-02-26T06:47:24;3.40;;;3.03;;
25435;SDS011;13363;52.772;-3.890;2024-02-26T06:49:51;5.57;;;3.27;;
25435;SDS011;13363;52.772;-3.890;2024-02-26T06:52:17;6.13;;;3.37;;
25435;SDS011;13363;52.772;-3.890;2024-02-26T06:54:43;3.30;;;3.00;;
25435;SDS011;13363;52.772;-3.890;2024-02-26T06:57:10;3.60;;;2.77;;
25435;SDS011;13363;52.772;-3.890;2024-02-26T06:59:36;3.33;;;2.43;;
25435;SDS011;13363;52.772;-3.890;2024-02-26T07:02:03;3.37;;;3.17;;
25435;SDS011;13363;52.772;-3.890;2024-02-26T07:04:29;4.60;;;2.80;;
25435;SDS011;13363;52.772;-3.890;2024-02-26T07:06:58;4.57;;;2.87;;
25435;SDS011;13363;52.772;-3.890;2024-02-26T07:09:25;4.10;;;3.00;;
25435;SDS011;13363;52.772;-3.890;2024-02-26T07:11:51;3.50;;;2.47;;
25435;SDS011;13363;52.772;-3.890;2024-02-26T07:14:17;3.03;;;2.73;;
25435;SDS011;13363;52.772;-3.890;2024-02-26T07:16:43;3.10;;;2.70;;
25435;SDS011;13363;52.772;-3.890;2024-02-26T07:19:09;2.50;;;2.27;;
25435;SDS011;13363;52.772;-3.890;2024-02-26T07:21:36;2.93;;;2.63;;
25435;SDS011;13363;52.772;-3.890;2024-02-26T07:24:04;2.73;;;2.53;;
25435;SDS011;13363;52.772;-3.890;2024-02-26T07:26:31;8.33;;;2.63;;
25435;SDS011;13363;52.772;-3.890;2024-02-26T07:28:57;3.87;;;3.00;;
25435;SDS011;13363;52.772;-3.890;2024-02-26T07:31:23;4.37;;;2.80;;
25435;SDS011;13363;52.772;-3.890;2024-02-26T07:33:50;4.13;;;2.40;;
25435;SDS011;13363;52.772;-3.890;2024-02-26T07:36:16;5.63;;;2.13;;
25435;SDS011;13363;52.772;-3.890;2024-02-26T07:38:42;4.67;;;2.70;;
25435;SDS011;13363;52.772;-3.890;2024-02-26T07:41:08;3.10;;;2.40;;
25435;SDS011;13363;52.772;-3.890;2024-02-26T07:43:35;5.23;;;2.47;;
25435;SDS011;13363;52.772;-3.890;2024-02-26T07:46:01;2.13;;;1.90;;
25435;SDS011;13363;52.772;-3.890;2024-02-26T07:48:27;3.00;;;2.10;;
25435;SDS011;13363;52.772;-3.890;2024-02-26T07:50:54;2.00;;;1.90;;
25435;SDS011;13363;52.772;-3.890;2024-02-26T07:53:26;2.20;;;1.83;;
25435;SDS011;13363;52.772;-3.890;2024-02-26T07:55:52;3.50;;;1.80;;
25435;SDS011;13363;52.772;-3.890;2024-02-26T07:58:18;1.97;;;1.80;;
25435;SDS011;13363;52.772;-3.890;2024-02-26T08:00:44;5.60;;;1.80;;
25435;SDS011;13363;52.772;-3.890;2024-02-26T08:03:11;2.50;;;1.50;;
25435;SDS011;13363;52.772;-3.890;2024-02-26T08:05:40;2.73;;;1.47;;
25435;SDS011;13363;52.772;-3.890;2024-02-26T08:08:08;3.83;;;1.97;;
25435;SDS011;13363;52.772;-3.890;2024-02-26T08:10:34;3.83;;;1.97;;
25435;SDS011;13363;52.772;-3.890;2024-02-26T08:13:01;2.87;;;1.27;;
25435;SDS011;13363;52.772;-3.890;2024-02-26T08:15:32;2.63;;;1.70;;
25435;SDS011;13363;52.772;-3.890;2024-02-26T08:17:59;1.90;;;1.10;;
25435;SDS011;13363;52.772;-3.890;2024-02-26T08:20:28;1.57;;;1.40;;
25435;SDS011;13363;52.772;-3.890;2024-02-26T08:22:54;3.13;;;1.20;;
25435;SDS011;13363;52.772;-3.890;2024-02-26T08:25:20;3.47;;;1.00;;
25435;SDS011;13363;52.772;-3.890;2024-02-26T08:27:46;1.70;;;1.57;;
25435;SDS011;13363;52.772;-3.890;2024-02-26T08:30:13;1.60;;;1.50;;
25435;SDS011;13363;52.772;-3.890;2024-02-26T08:32:42;4.77;;;1.53;;
25435;SDS011;13363;52.772;-3.890;2024-02-26T08:35:08;1.33;;;1.07;;
25435;SDS011;13363;52.772;-3.890;2024-02-26T08:37:34;1.00;;;1.00;;
25435;SDS011;13363;52.772;-3.890;2024-02-26T08:40:00;1.30;;;1.20;;
25435;SDS011;13363;52.772;-3.890;2024-02-26T08:42:29;0.77;;;0.77;;
25435;SDS011;13363;52.772;-3.890;2024-02-26T08:44:55;3.07;;;1.10;;
25435;SDS011;13363;52.772;-3.890;2024-02-26T08:47:21;1.70;;;1.13;;
25435;SDS011;13363;52.772;-3.890;2024-02-26T08:49:48;1.30;;;1.20;;
25435;SDS011;13363;52.772;-3.890;2024-02-26T08:52:14;1.20;;;1.10;;
25435;SDS011;13363;52.772;-3.890;2024-02-26T08:54:40;2.23;;;1.03;;
25435;SDS011;13363;52.772;-3.890;2024-02-26T08:57:07;2.63;;;1.20;;
25435;SDS011;13363;52.772;-3.890;2024-02-26T08:59:33;4.23;;;1.40;;
25435;SDS011;13363;52.772;-3.890;2024-02-26T09:01:59;1.63;;;1.07;;
25435;SDS011;13363;52.772;-3.890;2024-02-26T09:04:25;1.53;;;0.97;;
25435;SDS011;13363;52.772;-3.890;2024-02-26T09:06:52;3.03;;;1.00;;
25435;SDS011;13363;52.772;-3.890;2024-02-26T09:09:19;1.60;;;0.73;;
25435;SDS011;13363;52.772;-3.890;2024-02-26T09:11:47;1.03;;;0.90;;
25435;SDS011;13363;52.772;-3.890;2024-02-26T09:14:16;1.80;;;0.90;;
25435;SDS011;13363;52.772;-3.890;2024-02-26T09:16:42;1.50;;;0.60;;
25435;SDS011;13363;52.772;-3.890;2024-02-26T09:19:11;0.83;;;0.77;;
25435;SDS011;13363;52.772;-3.890;2024-02-26T09:21:43;1.53;;;1.10;;
25435;SDS011;13363;52.772;-3.890;2024-02-26T09:24:13;1.27;;;0.90;;
25435;SDS011;13363;52.772;-3.890;2024-02-26T09:26:41;0.70;;;0.70;;
25435;SDS011;13363;52.772;-3.890;2024-02-26T09:29:08;1.00;;;0.80;;
25435;SDS011;13363;52.772;-3.890;2024-02-26T09:31:34;1.30;;;1.00;;
25435;SDS011;13363;52.772;-3.890;2024-02-26T09:34:01;0.80;;;0.80;;
25435;SDS011;13363;52.772;-3.890;2024-02-26T09:36:27;1.27;;;0.90;;
25435;SDS011;13363;52.772;-3.890;2024-02-26T09:38:53;1.23;;;0.80;;
25435;SDS011;13363;52.772;-3.890;2024-02-26T09:41:19;0.80;;;0.80;;
25435;SDS011;13363;52.772;-3.890;2024-02-26T09:43:46;0.87;;;0.60;;
25435;SDS011;13363;52.772;-3.890;2024-02-26T09:46:13;0.80;;;0.80;;
25435;SDS011;13363;52.772;-3.890;2024-02-26T09:48:40;0.83;;;0.60;;
25435;SDS011;13363;52.772;-3.890;2024-02-26T09:51:08;0.33;;;0.30;;
25435;SDS011;13363;52.772;-3.890;2024-02-26T09:53:36;1.30;;;0.80;;
25435;SDS011;13363;52.772;-3.890;2024-02-26T09:56:07;2.33;;;0.60;;
25435;SDS011;13363;52.772;-3.890;2024-02-26T09:58:34;2.00;;;0.67;;
25435;SDS011;13363;52.772;-3.890;2024-02-26T10:01:02;0.53;;;0.53;;
25435;SDS011;13363;52.772;-3.890;2024-02-26T10:03:31;1.23;;;0.73;;
25435;SDS011;13363;52.772;-3.890;2024-02-26T10:06:00;0.50;;;0.50;;
25435;SDS011;13363;52.772;-3.890;2024-02-26T10:08:29;0.97;;;0.60;;
25435;SDS011;13363;52.772;-3.890;2024-02-26T10:10:55;0.67;;;0.60;;
25435;SDS011;13363;52.772;-3.890;2024-02-26T10:13:22;0.87;;;0.47;;
25435;SDS011;13363;52.772;-3.890;2024-02-26T10:15:52;3.50;;;0.67;;
25435;SDS011;13363;52.772;-3.890;2024-02-26T10:18:19;0.83;;;0.60;;
25435;SDS011;13363;52.772;-3.890;2024-02-26T10:21:01;0.40;;;0.40;;
25435;SDS011;13363;52.772;-3.890;2024-02-26T10:23:33;0.50;;;0.50;;
25435;SDS011;13363;52.772;-3.890;2024-02-26T10:26:04;1.40;;;0.60;;
25435;SDS011;13363;52.772;-3.890;2024-02-26T10:28:31;0.30;;;0.30;;
25435;SDS011;13363;52.772;-3.890;2024-02-26T10:30:59;1.23;;;0.53;;
25435;SDS011;13363;52.772;-3.890;2024-02-26T10:33:27;1.27;;;0.70;;
25435;SDS011;13363;52.772;-3.890;2024-02-26T10:35:55;3.93;;;0.47;;
25435;SDS011;13363;52.772;-3.890;2024-02-26T10:38:22;0.43;;;0.43;;
25435;SDS011;13363;52.772;-3.890;2024-02-26T10:40:49;0.40;;;0.40;;
25435;SDS011;13363;52.772;-3.890;2024-02-26T10:43:15;2.00;;;0.47;;
25435;SDS011;13363;52.772;-3.890;2024-02-26T10:45:43;0.87;;;0.37;;
25435;SDS011;13363;52.772;-3.890;2024-02-26T10:48:13;0.60;;;0.60;;
25435;SDS011;13363;52.772;-3.890;2024-02-26T10:50:39;0.20;;;0.20;;
25435;SDS011;13363;52.772;-3.890;2024-02-26T10:53:09;0.47;;;0.47;;
25435;SDS011;13363;52.772;-3.890;2024-02-26T10:55:38;1.63;;;0.60;;
25435;SDS011;13363;52.772;-3.890;2024-02-26T10:58:10;0.20;;;0.20;;
25435;SDS011;13363;52.772;-3.890;2024-02-26T11:00:37;0.30;;;0.30;;
25435;SDS011;13363;52.772;-3.890;2024-02-26T11:03:04;1.17;;;0.40;;
25435;SDS011;13363;52.772;-3.890;2024-02-26T11:05:31;1.17;;;0.60;;
25435;SDS011;13363;52.772;-3.890;2024-02-26T11:07:59;0.37;;;0.37;;
25435;SDS011;13363;52.772;-3.890;2024-02-26T11:10:26;0.30;;;0.30;;
25435;SDS011;13363;52.772;-3.890;2024-02-26T11:12:53;0.90;;;0.40;;
25435;SDS011;13363;52.772;-3.890;2024-02-26T11:15:20;2.57;;;0.33;;
25435;SDS011;13363;52.772;-3.890;2024-02-26T11:17:46;0.50;;;0.50;;
25435;SDS011;13363;52.772;-3.890;2024-02-26T11:20:13;2.63;;;0.60;;
25435;SDS011;13363;52.772;-3.890;2024-02-26T11:22:40;3.97;;;0.53;;
25435;SDS011;13363;52.772;-3.890;2024-02-26T11:25:06;1.27;;;0.60;;
25435;SDS011;13363;52.772;-3.890;2024-02-26T11:27:35;4.47;;;1.00;;
25435;SDS011;13363;52.772;-3.890;2024-02-26T11:30:02;1.23;;;0.60;;
25435;SDS011;13363;52.772;-3.890;2024-02-26T11:32:30;2.27;;;0.50;;
25435;SDS011;13363;52.772;-3.890;2024-02-26T11:34:57;0.40;;;0.40;;
25435;SDS011;13363;52.772;-3.890;2024-02-26T11:37:25;0.50;;;0.40;;
25435;SDS011;13363;52.772;-3.890;2024-02-26T11:39:51;0.80;;;0.53;;
25435;SDS011;13363;52.772;-3.890;2024-02-26T11:42:22;0.87;;;0.40;;
25435;SDS011;13363;52.772;-3.890;2024-02-26T11:44:51;1.00;;;0.33;;
25435;SDS011;13363;52.772;-3.890;2024-02-26T11:47:21;2.17;;;0.73;;
25435;SDS011;13363;52.772;-3.890;2024-02-26T11:49:48;0.30;;;0.30;;
25435;SDS011;13363;52.772;-3.890;2024-02-26T11:52:15;1.60;;;0.60;;
25435;SDS011;13363;52.772;-3.890;2024-02-26T11:54:45;0.30;;;0.30;;
25435;SDS011;13363;52.772;-3.890;2024-02-26T11:57:30;0.70;;;0.60;;
25435;SDS011;13363;52.772;-3.890;2024-02-26T12:05:14;2.07;;;0.63;;
25435;SDS011;13363;52.772;-3.890;2024-02-26T12:07:44;1.43;;;0.50;;
25435;SDS011;13363;52.772;-3.890;2024-02-26T12:12:43;0.40;;;0.30;;
25435;SDS011;13363;52.772;-3.890;2024-02-26T12:15:09;2.67;;;0.30;;
25435;SDS011;13363;52.772;-3.890;2024-02-26T12:17:36;0.60;;;0.60;;
25435;SDS011;13363;52.772;-3.890;2024-02-26T12:20:11;0.30;;;0.30;;
25435;SDS011;13363;52.772;-3.890;2024-02-26T12:22:39;1.20;;;0.50;;
25435;SDS011;13363;52.772;-3.890;2024-02-26T12:25:06;1.87;;;0.60;;
25435;SDS011;13363;52.772;-3.890;2024-02-26T12:27:34;1.37;;;0.40;;
25435;SDS011;13363;52.772;-3.890;2024-02-26T12:30:01;0.87;;;0.60;;
25435;SDS011;13363;52.772;-3.890;2024-02-26T12:32:28;0.30;;;0.30;;
25435;SDS011;13363;52.772;-3.890;2024-02-26T12:34:54;1.43;;;0.40;;
25435;SDS011;13363;52.772;-3.890;2024-02-26T12:37:20;0.77;;;0.50;;
25435;SDS011;13363;52.772;-3.890;2024-02-26T12:39:46;1.70;;;0.50;;
25435;SDS011;13363;52.772;-3.890;2024-02-26T12:42:13;0.57;;;0.43;;
25435;SDS011;13363;52.772;-3.890;2024-02-26T12:44:40;0.90;;;0.50;;
25435;SDS011;13363;52.772;-3.890;2024-02-26T12:47:06;1.33;;;0.50;;
25435;SDS011;13363;52.772;-3.890;2024-02-26T12:49:32;0.30;;;0.30;;
25435;SDS011;13363;52.772;-3.890;2024-02-26T12:51:58;0.57;;;0.50;;
25435;SDS011;13363;52.772;-3.890;2024-02-26T12:54:28;2.67;;;0.50;;
25435;SDS011;13363;52.772;-3.890;2024-02-26T12:56:54;1.30;;;0.70;;
25435;SDS011;13363;52.772;-3.890;2024-02-26T12:59:20;1.97;;;0.40;;
25435;SDS011;13363;52.772;-3.890;2024-02-26T13:01:47;0.87;;;0.40;;
25435;SDS011;13363;52.772;-3.890;2024-02-26T13:04:15;1.50;;;0.50;;
25435;SDS011;13363;52.772;-3.890;2024-02-26T13:06:42;0.40;;;0.40;;
25435;SDS011;13363;52.772;-3.890;2024-02-26T13:09:12;0.63;;;0.40;;
25435;SDS011;13363;52.772;-3.890;2024-02-26T13:11:39;1.30;;;0.30;;
25435;SDS011;13363;52.772;-3.890;2024-02-26T13:14:05;1.23;;;0.50;;
25435;SDS011;13363;52.772;-3.890;2024-02-26T13:16:32;0.60;;;0.50;;
25435;SDS011;13363;52.772;-3.890;2024-02-26T13:19:08;2.77;;;0.80;;
25435;SDS011;13363;52.772;-3.890;2024-02-26T13:21:35;0.90;;;0.47;;
25435;SDS011;13363;52.772;-3.890;2024-02-26T13:24:01;0.30;;;0.30;;
25435;SDS011;13363;52.772;-3.890;2024-02-26T13:26:27;0.40;;;0.40;;
25435;SDS011;13363;52.772;-3.890;2024-02-26T13:29:00;0.43;;;0.40;;
25435;SDS011;13363;52.772;-3.890;2024-02-26T13:31:27;0.97;;;0.57;;
25435;SDS011;13363;52.772;-3.890;2024-02-26T13:33:53;0.33;;;0.33;;
25435;SDS011;13363;52.772;-3.890;2024-02-26T13:36:21;0.40;;;0.40;;
25435;SDS011;13363;52.772;-3.890;2024-02-26T13:38:54;0.30;;;0.30;;
25435;SDS011;13363;52.772;-3.890;2024-02-26T13:41:20;0.30;;;0.30;;
25435;SDS011;13363;52.772;-3.890;2024-02-26T13:43:47;1.30;;;0.50;;
25435;SDS011;13363;52.772;-3.890;2024-02-26T13:46:13;0.40;;;0.40;;
25435;SDS011;13363;52.772;-3.890;2024-02-26T13:48:41;0.40;;;0.40;;
25435;SDS011;13363;52.772;-3.890;2024-02-26T13:51:07;0.10;;;0.10;;
25435;SDS011;13363;52.772;-3.890;2024-02-26T13:53:33;0.83;;;0.30;;
25435;SDS011;13363;52.772;-3.890;2024-02-26T13:55:59;0.50;;;0.50;;
25435;SDS011;13363;52.772;-3.890;2024-02-26T13:58:29;1.27;;;0.40;;
25435;SDS011;13363;52.772;-3.890;2024-02-26T14:00:55;2.27;;;0.40;;
25435;SDS011;13363;52.772;-3.890;2024-02-26T14:03:22;2.23;;;0.73;;
25435;SDS011;13363;52.772;-3.890;2024-02-26T14:05:48;1.37;;;0.40;;
25435;SDS011;13363;52.772;-3.890;2024-02-26T14:08:14;0.50;;;0.43;;
25435;SDS011;13363;52.772;-3.890;2024-02-26T14:10:41;0.30;;;0.30;;
25435;SDS011;13363;52.772;-3.890;2024-02-26T14:13:07;0.40;;;0.40;;
25435;SDS011;13363;52.772;-3.890;2024-02-26T14:15:34;1.00;;;0.60;;
25435;SDS011;13363;52.772;-3.890;2024-02-26T14:18:00;0.50;;;0.50;;
25435;SDS011;13363;52.772;-3.890;2024-02-26T14:20:29;0.30;;;0.30;;
25435;SDS011;13363;52.772;-3.890;2024-02-26T14:22:55;1.63;;;0.50;;
25435;SDS011;13363;52.772;-3.890;2024-02-26T14:25:21;0.97;;;0.37;;
25435;SDS011;13363;52.772;-3.890;2024-02-26T14:27:47;0.70;;;0.40;;
25435;SDS011;13363;52.772;-3.890;2024-02-26T14:30:13;0.67;;;0.60;;
25435;SDS011;13363;52.772;-3.890;2024-02-26T14:32:40;0.80;;;0.60;;
25435;SDS011;13363;52.772;-3.890;2024-02-26T14:35:06;1.23;;;0.50;;
25435;SDS011;13363;52.772;-3.890;2024-02-26T14:37:34;0.60;;;0.60;;
25435;SDS011;13363;52.772;-3.890;2024-02-26T14:40:01;0.57;;;0.47;;